createdAt,value
2023-02-12T00:00:09.845Z,1.62
2023-02-12T00:02:44.268Z,1.64
2023-02-12T00:05:16.260Z,1.63
2023-02-12T00:07:45.293Z,1.64
2023-02-12T00:10:14.680Z,1.66
2023-02-12T00:12:44.968Z,1.63
2023-02-12T00:15:13.591Z,1.62
2023-02-12T00:17:43.240Z,1.62
2023-02-12T00:20:12.228Z,1.63
2023-02-12T00:22:42.318Z,1.64
2023-02-12T00:25:10.981Z,1.65
2023-02-12T00:27:41.679Z,1.67
2023-02-12T00:30:13.983Z,1.68
2023-02-12T00:32:45.928Z,1.65
2023-02-12T00:35:17.072Z,1.65
2023-02-12T00:37:45.916Z,1.67
2023-02-12T00:40:15.781Z,1.69
2023-02-12T00:42:47.194Z,1.70
2023-02-12T00:45:17.620Z,1.69
2023-02-12T00:47:47.738Z,1.70
2023-02-12T00:50:17.805Z,1.72
2023-02-12T00:52:46.371Z,1.73
2023-02-12T00:55:14.938Z,1.76
2023-02-12T00:57:43.487Z,1.78
2023-02-12T01:00:15.191Z,1.79
2023-02-12T01:02:43.924Z,1.79
2023-02-12T01:05:12.656Z,1.78
2023-02-12T01:07:42.905Z,1.79
2023-02-12T01:10:11.863Z,1.81
2023-02-12T01:12:40.462Z,1.81
2023-02-12T01:15:10.843Z,1.83
2023-02-12T01:17:39.438Z,1.83
2023-02-12T01:20:12.408Z,1.85
2023-02-12T01:22:41.934Z,1.85
2023-02-12T01:25:10.672Z,1.85
2023-02-12T01:27:40.881Z,1.86
2023-02-12T01:30:12.518Z,1.85
2023-02-12T01:32:41.124Z,1.86
2023-02-12T01:35:10.453Z,1.87
2023-02-12T01:37:40.205Z,1.88
2023-02-12T01:40:12.019Z,1.90
2023-02-12T01:42:42.284Z,1.90
2023-02-12T01:45:19.259Z,1.91
2023-02-12T01:47:47.568Z,1.91
2023-02-12T01:50:20.063Z,1.89
2023-02-12T01:52:52.183Z,1.90
2023-02-12T01:55:22.040Z,1.90
2023-02-12T01:57:50.896Z,1.91
2023-02-12T02:00:23.515Z,1.92
2023-02-12T02:02:57.036Z,1.89
2023-02-12T02:05:43.223Z,1.89
2023-02-12T02:08:11.823Z,1.90
2023-02-12T02:10:40.842Z,1.88
2023-02-12T02:13:29.554Z,1.88
2023-02-12T02:16:00.895Z,1.89
2023-02-12T02:18:46.640Z,1.88
2023-02-12T02:21:36.311Z,1.89
2023-02-12T02:24:31.648Z,1.91
2023-02-12T02:27:18.483Z,1.93
2023-02-12T02:30:17.453Z,1.93
2023-02-12T02:32:56.131Z,1.94
2023-02-12T02:35:30.363Z,1.92
2023-02-12T02:38:22.805Z,1.84
2023-02-12T02:41:11.529Z,1.73
2023-02-12T02:43:50.613Z,1.63
2023-02-12T02:46:43.182Z,1.54
2023-02-12T02:49:34.112Z,1.45
2023-02-12T02:52:08.120Z,1.40
2023-02-12T02:54:52.112Z,1.37
2023-02-12T02:57:44.109Z,1.33
2023-02-12T03:00:18.411Z,1.26
2023-02-12T03:02:58.430Z,1.23
2023-02-12T03:05:32.374Z,1.20
2023-02-12T03:08:12.617Z,1.18
2023-02-12T03:10:50.152Z,1.16
2023-02-12T03:13:24.187Z,1.13
2023-02-12T03:16:13.736Z,1.11
2023-02-12T03:18:50.414Z,1.11
2023-02-12T03:21:24.672Z,1.10
2023-02-12T03:24:07.010Z,1.09
2023-02-12T03:26:47.160Z,1.09
2023-02-12T03:29:15.941Z,1.05
2023-02-12T03:31:55.948Z,1.02
2023-02-12T03:34:36.527Z,1.00
2023-02-12T03:37:12.026Z,0.98
2023-02-12T03:39:59.406Z,0.95
2023-02-12T03:42:37.796Z,0.90
2023-02-12T03:45:39.304Z,0.86
2023-02-12T03:48:39.735Z,0.81
2023-02-12T03:51:35.123Z,0.72
2023-02-12T03:54:04.869Z,0.68
2023-02-12T03:56:38.644Z,0.62
2023-02-12T03:59:07.151Z,0.60
2023-02-12T04:01:36.294Z,0.59
2023-02-12T04:04:06.836Z,0.56
2023-02-12T04:06:35.828Z,0.52
2023-02-12T04:09:09.124Z,0.49
2023-02-12T04:12:16.690Z,0.44
2023-02-12T04:15:09.125Z,0.39
2023-02-12T04:18:02.744Z,0.34
2023-02-12T04:20:49.194Z,0.30
2023-02-12T04:23:28.643Z,0.26
2023-02-12T04:26:24.387Z,0.23
2023-02-12T04:29:14.986Z,0.20
2023-02-12T04:32:32.543Z,0.19
2023-02-12T04:35:13.560Z,0.17
2023-02-12T04:37:51.587Z,0.16
2023-02-12T04:40:20.323Z,0.15
2023-02-12T04:42:51.452Z,0.11
2023-02-12T04:45:28.937Z,0.07
2023-02-12T04:48:01.111Z,0.03
2023-02-12T04:50:41.499Z,-0.02
2023-02-12T04:53:11.430Z,-0.02
2023-02-12T04:55:40.315Z,-0.02
2023-02-12T04:58:08.961Z,-0.02
2023-02-12T05:00:37.620Z,-0.02
2023-02-12T05:03:06.543Z,-0.05
2023-02-12T05:05:36.327Z,-0.09
2023-02-12T05:08:06.635Z,-0.14
2023-02-12T05:10:36.794Z,-0.17
2023-02-12T05:13:06.875Z,-0.19
2023-02-12T05:15:39.523Z,-0.20
2023-02-12T05:18:08.139Z,-0.21
2023-02-12T05:20:38.192Z,-0.23
2023-02-12T05:23:07.135Z,-0.22
2023-02-12T05:25:37.116Z,-0.22
2023-02-12T05:28:05.714Z,-0.23
2023-02-12T05:30:34.234Z,-0.20
2023-02-12T05:33:03.363Z,-0.18
2023-02-12T05:35:35.239Z,-0.18
2023-02-12T05:38:05.664Z,-0.17
2023-02-12T05:40:35.268Z,-0.18
2023-02-12T05:43:04.550Z,-0.17
2023-02-12T05:45:35.790Z,-0.18
2023-02-12T05:48:05.097Z,-0.17
2023-02-12T05:50:35.964Z,-0.18
2023-02-12T05:53:07.184Z,-0.18
2023-02-12T05:55:37.318Z,-0.15
2023-02-12T05:58:06.955Z,-0.14
2023-02-12T06:00:35.745Z,-0.15
2023-02-12T06:03:04.418Z,-0.16
2023-02-12T06:05:34.290Z,-0.19
2023-02-12T06:08:05.223Z,-0.21
2023-02-12T06:10:35.301Z,-0.21
2023-02-12T06:13:06.031Z,-0.22
2023-02-12T06:15:37.247Z,-0.22
2023-02-12T06:18:07.214Z,-0.25
2023-02-12T06:20:39.852Z,-0.26
2023-02-12T06:23:08.402Z,-0.28
2023-02-12T06:25:37.506Z,-0.29
2023-02-12T06:28:07.951Z,-0.28
2023-02-12T06:30:36.624Z,-0.29
2023-02-12T06:33:07.847Z,-0.33
2023-02-12T06:35:36.848Z,-0.35
2023-02-12T06:38:06.890Z,-0.36
2023-02-12T06:40:35.760Z,-0.35
2023-02-12T06:43:05.194Z,-0.33
2023-02-12T06:45:34.943Z,-0.32
2023-02-12T06:48:03.716Z,-0.29
2023-02-12T06:50:33.874Z,-0.24
2023-02-12T06:53:02.794Z,-0.21
2023-02-12T06:55:32.045Z,-0.18
2023-02-12T06:58:01.058Z,-0.13
2023-02-12T07:00:31.336Z,-0.12
2023-02-12T07:03:00.231Z,-0.11
2023-02-12T07:05:28.990Z,-0.10
2023-02-12T07:07:57.525Z,-0.06
2023-02-12T07:10:26.280Z,0.00
2023-02-12T07:12:56.497Z,0.08
2023-02-12T07:15:25.483Z,0.12
2023-02-12T07:17:54.168Z,0.13
2023-02-12T07:20:23.054Z,0.15
2023-02-12T07:22:51.793Z,0.22
2023-02-12T07:25:20.370Z,0.27
2023-02-12T07:27:50.590Z,0.29
2023-02-12T07:30:20.214Z,0.30
2023-02-12T07:32:49.883Z,0.33
2023-02-12T07:35:18.427Z,0.36
2023-02-12T07:37:47.093Z,0.41
2023-02-12T07:40:16.161Z,0.43
2023-02-12T07:42:44.789Z,0.40
2023-02-12T07:45:14.608Z,0.39
2023-02-12T07:47:43.602Z,0.37
2023-02-12T07:50:12.492Z,0.39
2023-02-12T07:52:41.169Z,0.40
2023-02-12T07:55:10.064Z,0.40
2023-02-12T07:57:38.840Z,0.43
2023-02-12T08:00:08.824Z,0.50
2023-02-12T08:02:40.567Z,0.63
2023-02-12T08:05:09.404Z,0.80
2023-02-12T08:07:39.095Z,0.98
2023-02-12T08:10:08.871Z,1.27
2023-02-12T08:12:37.449Z,1.62
2023-02-12T08:15:08.256Z,1.83
2023-02-12T08:17:37.429Z,1.94
2023-02-12T08:20:08.230Z,2.01
2023-02-12T08:22:36.767Z,2.07
2023-02-12T08:25:06.053Z,2.12
2023-02-12T08:27:34.720Z,2.23
2023-02-12T08:30:03.669Z,2.44
2023-02-12T08:32:33.614Z,2.74
2023-02-12T08:35:03.660Z,2.92
2023-02-12T08:37:32.808Z,3.01
2023-02-12T08:40:01.914Z,3.03
2023-02-12T08:42:31.659Z,3.06
2023-02-12T08:45:00.307Z,3.15
2023-02-12T08:47:31.546Z,3.24
2023-02-12T08:50:00.344Z,3.27
2023-02-12T08:52:30.230Z,3.15
2023-02-12T08:55:01.405Z,3.04
2023-02-12T08:57:30.339Z,2.78
2023-02-12T08:59:59.069Z,2.61
2023-02-12T09:02:28.140Z,2.41
2023-02-12T09:04:57.568Z,2.31
2023-02-12T09:07:27.499Z,2.23
2023-02-12T09:09:56.472Z,2.20
2023-02-12T09:12:25.345Z,2.20
2023-02-12T09:14:55.716Z,2.18
2023-02-12T09:17:27.253Z,2.11
2023-02-12T09:19:57.217Z,2.04
2023-02-12T09:22:25.900Z,1.90
2023-02-12T09:24:56.373Z,1.83
2023-02-12T09:27:25.036Z,1.77
2023-02-12T09:29:53.913Z,1.76
2023-02-12T09:32:22.805Z,1.72
2023-02-12T09:34:51.970Z,1.71
2023-02-12T09:37:20.856Z,1.73
2023-02-12T09:39:51.645Z,1.75
2023-02-12T09:42:52.110Z,1.76
2023-02-12T09:45:26.985Z,1.74
2023-02-12T09:48:19.475Z,1.71
2023-02-12T09:51:00.454Z,1.73
2023-02-12T09:53:30.901Z,1.74
2023-02-12T09:55:59.403Z,1.75
2023-02-12T09:58:53.283Z,1.78
2023-02-12T10:01:23.023Z,1.80
2023-02-12T10:03:52.225Z,1.81
2023-02-12T10:06:29.382Z,1.84
2023-02-12T10:09:09.707Z,1.86
2023-02-12T10:12:03.021Z,1.82
2023-02-12T10:15:02.287Z,1.79
2023-02-12T10:17:45.002Z,1.78
2023-02-12T10:20:42.279Z,1.82
2023-02-12T10:23:37.824Z,1.83
2023-02-12T10:26:23.404Z,1.83
2023-02-12T10:28:52.839Z,1.85
2023-02-12T10:31:33.016Z,1.84
2023-02-12T10:34:02.258Z,1.85
2023-02-12T10:36:45.626Z,1.80
2023-02-12T10:39:24.377Z,1.79
2023-02-12T10:42:10.490Z,1.76
2023-02-12T10:44:39.793Z,1.72
2023-02-12T10:47:22.487Z,1.77
2023-02-12T10:50:02.084Z,1.80
2023-02-12T10:52:45.763Z,1.83
2023-02-12T10:55:32.154Z,1.89
2023-02-12T10:58:03.116Z,1.94
2023-02-12T11:00:37.339Z,1.97
2023-02-12T11:03:20.841Z,1.98
2023-02-12T11:05:50.344Z,1.99
2023-02-12T11:08:38.348Z,1.99
2023-02-12T11:11:09.166Z,2.02
2023-02-12T11:13:39.813Z,2.00
2023-02-12T11:16:10.382Z,1.99
2023-02-12T11:18:40.930Z,1.99
2023-02-12T11:21:13.571Z,1.96
2023-02-12T11:23:43.756Z,1.98
2023-02-12T11:26:26.818Z,1.99
2023-02-12T11:29:03.599Z,1.99
2023-02-12T11:31:34.886Z,2.01
2023-02-12T11:34:19.485Z,2.02
2023-02-12T11:36:50.268Z,2.03
2023-02-12T11:39:33.293Z,2.03
2023-02-12T11:42:09.901Z,1.99
2023-02-12T11:44:41.982Z,2.00
2023-02-12T11:47:27.068Z,2.00
2023-02-12T11:50:20.250Z,2.01
2023-02-12T11:52:51.979Z,2.05
2023-02-12T11:55:33.631Z,2.10
2023-02-12T11:58:16.982Z,2.11
2023-02-12T12:01:09.795Z,2.10
2023-02-12T12:04:17.868Z,2.10
2023-02-12T12:06:51.681Z,2.10
2023-02-12T12:09:30.339Z,2.09
2023-02-12T12:12:23.566Z,2.11
2023-02-12T12:15:15.385Z,2.13
2023-02-12T12:18:19.939Z,2.14
2023-02-12T12:21:06.378Z,2.16
2023-02-12T12:23:39.481Z,2.17
2023-02-12T12:26:18.529Z,2.21
2023-02-12T12:29:01.986Z,2.22
2023-02-12T12:31:42.219Z,2.25
2023-02-12T12:34:24.699Z,2.28
2023-02-12T12:37:19.292Z,2.29
2023-02-12T12:39:59.771Z,2.30
2023-02-12T12:42:58.168Z,2.31
2023-02-12T12:46:01.525Z,2.30
2023-02-12T12:49:03.962Z,2.34
2023-02-12T12:52:08.164Z,2.37
2023-02-12T12:54:43.803Z,2.36
2023-02-12T12:57:38.883Z,2.38
2023-02-12T13:00:36.982Z,2.40
2023-02-12T13:03:53.349Z,2.39
2023-02-12T13:06:54.794Z,2.40
2023-02-12T13:09:59.835Z,2.41
2023-02-12T13:12:56.733Z,2.46
2023-02-12T13:16:01.794Z,2.46
2023-02-12T13:19:08.309Z,2.46
2023-02-12T13:22:12.448Z,2.45
2023-02-12T13:24:58.882Z,2.41
2023-02-12T13:27:34.608Z,2.38
2023-02-12T13:30:18.004Z,2.34
2023-02-12T13:33:17.064Z,2.33
2023-02-12T13:35:47.498Z,2.33
2023-02-12T13:38:25.278Z,2.35
2023-02-12T13:41:00.390Z,2.34
2023-02-12T13:43:59.855Z,2.32
2023-02-12T13:46:59.979Z,2.29
2023-02-12T13:49:56.382Z,2.28
2023-02-12T13:52:47.356Z,2.29
2023-02-12T13:55:35.417Z,2.29
2023-02-12T13:58:39.969Z,2.29
2023-02-12T14:01:14.213Z,2.29
2023-02-12T14:03:45.979Z,2.29
2023-02-12T14:06:24.588Z,2.28
2023-02-12T14:09:09.593Z,2.25
2023-02-12T14:11:51.946Z,2.22
2023-02-12T14:14:39.749Z,2.19
2023-02-12T14:17:33.731Z,2.19
2023-02-12T14:20:27.339Z,2.14
2023-02-12T14:23:22.517Z,2.12
2023-02-12T14:26:10.679Z,2.10
2023-02-12T14:29:01.984Z,2.08
2023-02-12T14:31:34.096Z,2.08
2023-02-12T14:34:11.829Z,2.05
2023-02-12T14:36:46.478Z,2.04
2023-02-12T14:39:26.590Z,2.03
2023-02-12T14:42:26.652Z,1.96
2023-02-12T14:44:58.565Z,1.91
2023-02-12T14:47:38.365Z,1.87
2023-02-12T14:50:15.596Z,1.84
2023-02-12T14:52:51.897Z,1.81
2023-02-12T14:55:25.014Z,1.78
2023-02-12T14:57:59.361Z,1.78
2023-02-12T15:00:41.733Z,1.75
2023-02-12T15:03:22.166Z,1.73
2023-02-12T15:06:10.694Z,1.70
2023-02-12T15:09:24.455Z,1.67
2023-02-12T15:12:20.169Z,1.65
2023-02-12T15:15:04.868Z,1.59
2023-02-12T15:17:35.404Z,1.56
2023-02-12T15:20:10.206Z,1.54
2023-02-12T15:22:42.818Z,1.53
2023-02-12T15:25:23.395Z,1.50
2023-02-12T15:28:01.928Z,1.47
2023-02-12T15:30:33.649Z,1.44
2023-02-12T15:33:05.684Z,1.47
2023-02-12T15:35:38.249Z,1.51
2023-02-12T15:38:08.057Z,1.50
2023-02-12T15:40:38.948Z,1.45
2023-02-12T15:43:14.260Z,1.42
2023-02-12T15:45:53.906Z,1.39
2023-02-12T15:48:25.809Z,1.36
2023-02-12T15:51:24.751Z,1.32
2023-02-12T15:53:53.633Z,1.31
2023-02-12T15:56:23.410Z,1.24
2023-02-12T15:58:59.265Z,1.22
2023-02-12T16:01:34.858Z,1.20
2023-02-12T16:04:06.441Z,1.17
2023-02-12T16:06:36.402Z,1.13
2023-02-12T16:09:28.751Z,1.11
2023-02-12T16:11:59.077Z,1.09
2023-02-12T16:14:37.503Z,1.07
2023-02-12T16:17:27.012Z,1.06
2023-02-12T16:20:01.577Z,1.05
2023-02-12T16:22:42.474Z,1.03
2023-02-12T16:25:24.697Z,0.98
2023-02-12T16:28:19.864Z,0.95
2023-02-12T16:30:49.163Z,0.92
2023-02-12T16:33:45.252Z,0.91
2023-02-12T16:36:25.889Z,0.88
2023-02-12T16:38:57.365Z,0.85
2023-02-12T16:41:39.171Z,0.84
2023-02-12T16:44:21.196Z,0.83
2023-02-12T16:46:52.951Z,0.82
2023-02-12T16:49:24.955Z,0.78
2023-02-12T16:52:08.744Z,0.78
2023-02-12T16:54:37.284Z,0.79
2023-02-12T16:57:10.224Z,0.78
2023-02-12T16:59:43.326Z,0.75
2023-02-12T17:02:14.653Z,0.75
2023-02-12T17:04:43.335Z,0.72
2023-02-12T17:07:22.971Z,0.68
2023-02-12T17:09:52.646Z,0.66
2023-02-12T17:12:22.902Z,0.60
2023-02-12T17:14:51.903Z,0.56
2023-02-12T17:17:22.129Z,0.53
2023-02-12T17:19:53.112Z,0.53
2023-02-12T17:22:24.394Z,0.52
2023-02-12T17:24:54.485Z,0.50
2023-02-12T17:27:23.456Z,0.47
2023-02-12T17:29:53.649Z,0.45
2023-02-12T17:32:24.121Z,0.45
2023-02-12T17:34:54.308Z,0.45
2023-02-12T17:37:24.549Z,0.43
2023-02-12T17:39:56.013Z,0.40
2023-02-12T17:42:24.442Z,0.38
2023-02-12T17:44:52.993Z,0.40
2023-02-12T17:47:22.419Z,0.35
2023-02-12T17:49:51.349Z,0.32
2023-02-12T17:52:20.651Z,0.29
2023-02-12T17:54:51.399Z,0.26
2023-02-12T17:57:21.207Z,0.25
2023-02-12T17:59:50.706Z,0.22
2023-02-12T18:02:20.909Z,0.18
2023-02-12T18:04:49.638Z,0.14
2023-02-12T18:07:23.563Z,0.13
2023-02-12T18:09:53.528Z,0.12
2023-02-12T18:12:22.711Z,0.07
2023-02-12T18:14:52.576Z,0.05
2023-02-12T18:17:22.963Z,0.02
2023-02-12T18:19:51.853Z,-0.02
2023-02-12T18:22:20.883Z,-0.03
2023-02-12T18:24:49.549Z,-0.04
2023-02-12T18:27:18.464Z,-0.05
2023-02-12T18:29:47.224Z,-0.05
2023-02-12T18:32:16.301Z,-0.05
2023-02-12T18:34:45.334Z,-0.06
2023-02-12T18:37:14.200Z,-0.06
2023-02-12T18:39:43.157Z,-0.08
2023-02-12T18:42:12.498Z,-0.10
2023-02-12T18:44:42.502Z,-0.13
2023-02-12T18:47:11.242Z,-0.14
2023-02-12T18:49:40.722Z,-0.14
2023-02-12T18:52:09.731Z,-0.17
2023-02-12T18:54:38.211Z,-0.21
2023-02-12T18:57:06.980Z,-0.21
2023-02-12T18:59:37.387Z,-0.23
2023-02-12T19:02:07.587Z,-0.25
2023-02-12T19:04:36.483Z,-0.28
2023-02-12T19:07:05.357Z,-0.28
2023-02-12T19:09:34.579Z,-0.28
2023-02-12T19:12:06.875Z,-0.27
2023-02-12T19:14:35.529Z,-0.25
2023-02-12T19:17:04.472Z,-0.22
2023-02-12T19:19:33.108Z,-0.20
2023-02-12T19:22:01.784Z,-0.20
2023-02-12T19:24:45.594Z,-0.22
2023-02-12T19:27:02.482Z,-0.24
2023-02-12T19:29:31.155Z,-0.26
2023-02-12T19:31:59.997Z,-0.30
2023-02-12T19:34:28.982Z,-0.32
2023-02-12T19:36:57.987Z,-0.28
2023-02-12T19:39:27.221Z,-0.27
2023-02-12T19:41:55.910Z,-0.29
2023-02-12T19:44:25.134Z,-0.28
2023-02-12T19:46:54.881Z,-0.27
2023-02-12T19:49:26.921Z,-0.28
2023-02-12T19:51:56.571Z,-0.27
2023-02-12T19:54:25.150Z,-0.25
2023-02-12T19:56:55.325Z,-0.22
2023-02-12T19:59:25.299Z,-0.23
2023-02-12T20:01:55.938Z,-0.23
2023-02-12T20:04:24.762Z,-0.21
2023-02-12T20:06:54.716Z,-0.18
2023-02-12T20:09:23.690Z,-0.17
2023-02-12T20:11:52.897Z,-0.17
2023-02-12T20:14:22.330Z,-0.17
2023-02-12T20:16:53.325Z,-0.18
2023-02-12T20:19:26.982Z,-0.17
2023-02-12T20:21:57.512Z,-0.19
2023-02-12T20:24:29.371Z,-0.21
2023-02-12T20:26:58.570Z,-0.24
2023-02-12T20:29:27.898Z,-0.26
2023-02-12T20:31:56.429Z,-0.29
2023-02-12T20:34:25.230Z,-0.29
2023-02-12T20:36:53.996Z,-0.29
2023-02-12T20:39:23.146Z,-0.35
2023-02-12T20:41:52.602Z,-0.35
2023-02-12T20:44:21.564Z,-0.37
2023-02-12T20:46:55.903Z,-0.39
2023-02-12T20:49:24.065Z,-0.39
2023-02-12T20:51:54.612Z,-0.40
2023-02-12T20:54:23.183Z,-0.40
2023-02-12T20:56:52.440Z,-0.43
2023-02-12T20:59:21.172Z,-0.44
2023-02-12T21:01:49.926Z,-0.45
2023-02-12T21:04:19.181Z,-0.46
2023-02-12T21:06:47.976Z,-0.45
2023-02-12T21:09:16.545Z,-0.44
2023-02-12T21:11:46.922Z,-0.42
2023-02-12T21:14:24.677Z,-0.42
2023-02-12T21:16:47.272Z,-0.41
2023-02-12T21:19:16.700Z,-0.44
2023-02-12T21:21:45.646Z,-0.46
2023-02-12T21:24:22.471Z,-0.46
2023-02-12T21:26:52.035Z,-0.46
2023-02-12T21:29:21.396Z,-0.49
2023-02-12T21:31:51.038Z,-0.50
2023-02-12T21:34:21.636Z,-0.53
2023-02-12T21:36:50.830Z,-0.51
2023-02-12T21:39:27.235Z,-0.49
2023-02-12T21:42:02.414Z,-0.50
2023-02-12T21:44:32.457Z,-0.51
2023-02-12T21:47:01.237Z,-0.53
2023-02-12T21:49:31.484Z,-0.55
2023-02-12T21:52:05.624Z,-0.55
2023-02-12T21:54:35.015Z,-0.57
2023-02-12T21:57:05.337Z,-0.60
2023-02-12T21:59:35.005Z,-0.63
2023-02-12T22:02:05.510Z,-0.62
2023-02-12T22:04:37.023Z,-0.62
2023-02-12T22:07:07.952Z,-0.60
2023-02-12T22:09:38.333Z,-0.59
2023-02-12T22:12:07.508Z,-0.60
2023-02-12T22:14:36.044Z,-0.60
2023-02-12T22:17:08.044Z,-0.58
2023-02-12T22:19:38.692Z,-0.58
2023-02-12T22:22:07.449Z,-0.61
2023-02-12T22:24:37.578Z,-0.63
2023-02-12T22:27:08.031Z,-0.63
2023-02-12T22:29:38.195Z,-0.63
2023-02-12T22:32:06.820Z,-0.65
2023-02-12T22:34:36.482Z,-0.68
2023-02-12T22:37:05.079Z,-0.70
2023-02-12T22:39:35.678Z,-0.70
2023-02-12T22:42:04.890Z,-0.73
2023-02-12T22:44:36.300Z,-0.76
2023-02-12T22:47:05.967Z,-0.78
2023-02-12T22:49:34.669Z,-0.77
2023-02-12T22:52:04.929Z,-0.79
2023-02-12T22:54:36.100Z,-0.77
2023-02-12T22:57:06.253Z,-0.75
2023-02-12T22:59:34.921Z,-0.76
2023-02-12T23:02:05.328Z,-0.77
2023-02-12T23:04:34.043Z,-0.80
2023-02-12T23:07:03.973Z,-0.81
2023-02-12T23:09:33.574Z,-0.80
2023-02-12T23:12:04.199Z,-0.80
2023-02-12T23:14:35.758Z,-0.80
2023-02-12T23:17:05.419Z,-0.80
2023-02-12T23:19:33.930Z,-0.84
2023-02-12T23:22:02.508Z,-0.88
2023-02-12T23:24:31.539Z,-0.89
2023-02-12T23:27:02.905Z,-0.89
2023-02-12T23:29:31.489Z,-0.91
2023-02-12T23:32:02.138Z,-0.91
2023-02-12T23:34:31.152Z,-0.97
2023-02-12T23:36:59.722Z,-0.96
2023-02-12T23:39:28.725Z,-0.94
2023-02-12T23:41:57.241Z,-0.94
2023-02-12T23:44:26.116Z,-0.94
2023-02-12T23:46:55.070Z,-0.92
2023-02-12T23:49:24.143Z,-0.92
2023-02-12T23:51:53.012Z,-0.94
2023-02-12T23:54:22.918Z,-0.94
2023-02-12T23:56:51.563Z,-0.93
2023-02-12T23:59:20.990Z,-0.97
